Time;durP1;ratioP1;P1;durP2;ratioP2;P2;SDS_P1;SDS_P2;PMS_P1;PMS_P2;Temp;Humidity;BMP_temperature;BMP_pressure;BME280_temperature;BME280_humidity;BME280_pressure;Samples;Min_cycle;Max_cycle;Signal;HPM_P1;HPM_P2
2023/04/08 00:00:21;;;;;;;12.40;6.80;;;3.50;99.90;;;;;;5006776;28;20046;-73
2023/04/08 00:02:47;;;;;;;11.38;6.93;;;3.50;99.90;;;;;;5007254;28;20049;-73
2023/04/08 00:05:12;;;;;;;12.18;6.68;;;3.50;99.90;;;;;;5010258;28;20386;-73
2023/04/08 00:07:38;;;;;;;10.98;6.93;;;3.40;99.90;;;;;;5015735;28;20489;-73
2023/04/08 00:10:05;;;;;;;9.40;5.63;;;3.40;99.90;;;;;;5033346;28;20504;-73
2023/04/08 00:12:31;;;;;;;11.48;7.40;;;3.30;99.90;;;;;;5017530;28;20041;-73
2023/04/08 00:14:57;;;;;;;12.25;6.68;;;3.30;99.90;;;;;;5014348;28;20069;-73
2023/04/08 00:17:22;;;;;;;11.43;6.60;;;3.30;99.90;;;;;;5014329;28;20076;-73
2023/04/08 00:19:48;;;;;;;11.48;6.53;;;3.20;99.90;;;;;;4987383;28;20049;-72
2023/04/08 00:22:13;;;;;;;13.40;7.05;;;3.20;99.90;;;;;;5007047;28;20056;-73
2023/04/08 00:24:39;;;;;;;11.38;6.75;;;3.10;99.90;;;;;;5007154;28;20033;-72
2023/04/08 00:27:05;;;;;;;10.68;6.68;;;3.10;99.90;;;;;;5002753;28;20121;-73
2023/04/08 00:29:31;;;;;;;12.90;6.70;;;3.10;99.90;;;;;;5008191;28;20053;-73
2023/04/08 00:31:56;;;;;;;12.93;7.68;;;3.10;99.90;;;;;;4991754;28;20080;-73
2023/04/08 00:34:23;;;;;;;13.15;7.30;;;3.00;99.90;;;;;;4988218;28;20042;-73
2023/04/08 00:36:48;;;;;;;14.02;8.18;;;3.00;99.90;;;;;;5006746;28;20048;-73
2023/04/08 00:39:14;;;;;;;14.98;7.72;;;2.90;99.90;;;;;;5009739;28;20361;-73
2023/04/08 00:41:40;;;;;;;15.18;8.20;;;2.90;99.90;;;;;;5013524;28;20087;-73
2023/04/08 00:44:05;;;;;;;13.95;8.40;;;2.80;99.90;;;;;;5008066;28;20030;-72
2023/04/08 00:46:37;;;;;;;11.45;7.20;;;2.80;99.90;;;;;;5009786;28;20456;-73
2023/04/08 00:49:03;;;;;;;14.93;8.23;;;2.80;99.90;;;;;;5032197;28;20362;-72
2023/04/08 00:51:30;;;;;;;12.75;8.15;;;2.80;99.90;;;;;;5003152;28;20048;-73
2023/04/08 00:53:55;;;;;;;14.95;8.43;;;2.70;99.90;;;;;;4999530;28;20124;-72
2023/04/08 00:56:22;;;;;;;14.90;8.68;;;2.70;99.90;;;;;;5014547;28;20466;-73
2023/04/08 00:58:49;;;;;;;13.10;8.60;;;2.70;99.90;;;;;;5016069;28;20038;-73
2023/04/08 01:01:24;;;;;;;14.88;8.05;;;2.60;99.90;;;;;;5014492;28;20076;-73
2023/04/08 01:04:05;;;;;;;15.90;8.38;;;2.50;99.90;;;;;;5016014;28;20132;-72
2023/04/08 01:07:06;;;;;;;14.35;8.10;;;2.50;99.90;;;;;;5014362;28;20516;-74
2023/04/08 01:09:36;;;;;;;14.73;8.45;;;2.40;99.90;;;;;;5002147;28;20477;-72
2023/04/08 01:12:06;;;;;;;14.05;8.60;;;2.30;99.90;;;;;;5014563;28;20092;-73
2023/04/08 01:14:39;;;;;;;14.05;9.60;;;2.40;99.90;;;;;;5009491;28;20033;-73
2023/04/08 01:17:05;;;;;;;14.30;8.88;;;2.40;99.90;;;;;;5013827;28;20038;-73
2023/04/08 01:19:36;;;;;;;16.38;8.82;;;2.40;99.90;;;;;;5012226;28;20148;-72
2023/04/08 01:22:18;;;;;;;;;;;2.40;99.90;;;;;;5006674;28;20045;-72
2023/04/08 01:24:45;;;;;;;18.90;9.85;;;2.40;99.90;;;;;;4991801;28;19924;-72
2023/04/08 01:27:13;;;;;;;15.13;8.68;;;2.30;99.90;;;;;;5008409;28;20037;-73
2023/04/08 01:29:39;;;;;;;16.35;9.55;;;2.30;99.90;;;;;;5007959;28;20046;-73
2023/04/08 01:32:06;;;;;;;15.45;9.52;;;2.30;99.90;;;;;;5007593;28;20042;-73
2023/04/08 01:34:33;;;;;;;16.75;9.50;;;2.30;99.90;;;;;;5003579;28;20045;-73
2023/04/08 01:37:00;;;;;;;18.17;10.13;;;2.20;99.90;;;;;;5020780;28;20046;-73
2023/04/08 01:39:27;;;;;;;20.00;10.23;;;2.30;99.90;;;;;;5022541;28;20037;-73
2023/04/08 01:41:54;;;;;;;16.30;9.18;;;2.20;99.90;;;;;;5007619;28;20508;-73
2023/04/08 01:44:21;;;;;;;17.00;9.98;;;2.20;99.90;;;;;;5015068;28;20045;-73
2023/04/08 01:46:49;;;;;;;20.20;11.23;;;2.20;99.90;;;;;;5008503;28;20422;-72
2023/04/08 01:49:16;;;;;;;17.23;9.88;;;2.20;99.90;;;;;;5004553;28;20156;-73
2023/04/08 01:51:43;;;;;;;17.02;9.88;;;2.20;99.90;;;;;;5005489;28;20041;-72
2023/04/08 01:54:09;;;;;;;19.98;10.52;;;2.20;99.90;;;;;;5024754;28;20072;-73
2023/04/08 01:56:38;;;;;;;17.83;10.80;;;2.20;99.90;;;;;;5004766;28;20049;-73
2023/04/08 01:59:10;;;;;;;19.20;10.15;;;2.20;99.90;;;;;;4992358;28;20082;-74
2023/04/08 02:01:36;;;;;;;16.10;9.95;;;2.20;99.90;;;;;;5006733;28;20034;-72
2023/04/08 02:04:02;;;;;;;17.38;9.85;;;2.20;99.90;;;;;;4993983;28;20634;-73
2023/04/08 02:06:30;;;;;;;17.23;10.00;;;2.20;99.90;;;;;;4996842;28;20102;-73
2023/04/08 02:08:56;;;;;;;17.30;10.65;;;2.10;99.90;;;;;;5000026;28;20402;-73
2023/04/08 02:11:21;;;;;;;19.05;10.00;;;2.10;99.90;;;;;;5002358;28;20481;-73
2023/04/08 02:13:47;;;;;;;20.95;10.13;;;2.10;99.90;;;;;;5008683;28;20049;-72
2023/04/08 02:16:23;;;;;;;20.20;10.65;;;2.10;99.90;;;;;;4997871;28;20061;-72
2023/04/08 02:18:56;;;;;;;18.45;10.00;;;2.10;99.90;;;;;;4976428;28;20128;-73
2023/04/08 02:21:28;;;;;;;18.42;10.85;;;2.10;99.90;;;;;;4994557;28;20068;-72
2023/04/08 02:23:54;;;;;;;16.90;9.77;;;2.00;99.90;;;;;;4989449;28;20041;-73
2023/04/08 02:26:20;;;;;;;17.20;9.95;;;1.90;99.90;;;;;;4994622;28;20470;-73
2023/04/08 02:28:48;;;;;;;14.95;9.18;;;2.00;99.90;;;;;;4992388;28;20049;-73
2023/04/08 02:31:17;;;;;;;19.50;10.77;;;1.90;99.90;;;;;;4992413;28;20386;-73
2023/04/08 02:33:43;;;;;;;22.20;11.07;;;1.90;99.90;;;;;;4977272;28;20045;-74
2023/04/08 02:36:11;;;;;;;18.92;10.85;;;1.90;99.90;;;;;;4988539;28;20048;-73
2023/04/08 02:38:36;;;;;;;21.65;10.30;;;1.90;99.90;;;;;;4992171;28;20068;-73
2023/04/08 02:41:02;;;;;;;19.10;11.10;;;1.90;99.90;;;;;;4990000;28;20466;-73
2023/04/08 02:43:31;;;;;;;20.63;10.77;;;1.90;99.90;;;;;;4995110;28;20041;-74
2023/04/08 02:46:02;;;;;;;19.52;11.07;;;1.90;99.90;;;;;;4981433;28;20037;-73
2023/04/08 02:48:29;;;;;;;20.17;11.73;;;2.00;99.90;;;;;;4993945;28;21181;-73
2023/04/08 02:50:54;;;;;;;19.25;11.23;;;1.90;99.90;;;;;;4981881;28;20045;-73
2023/04/08 02:53:22;;;;;;;20.40;10.73;;;1.90;99.90;;;;;;4998407;28;20045;-73
2023/04/08 02:55:47;;;;;;;19.13;10.68;;;1.90;99.90;;;;;;4985135;28;20081;-73
2023/04/08 02:58:13;;;;;;;25.23;11.73;;;1.90;99.90;;;;;;4995041;28;20069;-74
2023/04/08 03:00:39;;;;;;;19.77;11.02;;;1.90;99.90;;;;;;5006219;28;20038;-73
2023/04/08 03:03:05;;;;;;;18.48;11.40;;;1.80;99.90;;;;;;4980600;28;20044;-73
2023/04/08 03:05:32;;;;;;;21.17;12.07;;;1.80;99.90;;;;;;4993898;28;20072;-73
2023/04/08 03:07:57;;;;;;;23.95;12.63;;;1.90;99.90;;;;;;5005185;28;20052;-74
2023/04/08 03:10:23;;;;;;;23.65;12.60;;;1.90;99.90;;;;;;4995861;28;20038;-73
2023/04/08 03:12:49;;;;;;;23.65;12.60;;;1.80;99.90;;;;;;5000230;28;20125;-74
2023/04/08 03:15:15;;;;;;;20.92;11.20;;;1.80;99.90;;;;;;4999263;28;20458;-74
2023/04/08 03:17:40;;;;;;;22.92;12.52;;;1.90;99.90;;;;;;5000025;28;20069;-74
2023/04/08 03:20:07;;;;;;;21.85;12.73;;;1.90;99.90;;;;;;5001860;28;20042;-73
2023/04/08 03:22:33;;;;;;;23.23;12.45;;;1.90;99.90;;;;;;4982551;28;20037;-73
2023/04/08 03:24:58;;;;;;;24.63;12.00;;;1.80;99.90;;;;;;4998545;28;20034;-73
2023/04/08 03:27:25;;;;;;;27.05;13.13;;;1.80;99.90;;;;;;4993281;28;20659;-73
2023/04/08 03:29:51;;;;;;;22.08;12.93;;;1.70;99.90;;;;;;4998114;28;20152;-73
2023/04/08 03:32:17;;;;;;;22.50;13.13;;;1.70;99.90;;;;;;4996177;28;20042;-73
2023/04/08 03:34:43;;;;;;;22.88;13.10;;;1.70;99.90;;;;;;4996180;28;20136;-73
2023/04/08 03:37:09;;;;;;;26.13;13.10;;;1.70;99.90;;;;;;4994660;28;20053;-74
2023/04/08 03:39:34;;;;;;;23.60;13.05;;;1.80;99.90;;;;;;5001843;28;20093;-73
2023/04/08 03:42:01;;;;;;;21.90;12.23;;;1.70;99.90;;;;;;5005600;28;20045;-72
2023/04/08 03:44:27;;;;;;;23.02;12.80;;;1.70;99.90;;;;;;4997375;28;20053;-73
2023/04/08 03:46:53;;;;;;;24.00;13.15;;;1.60;99.90;;;;;;5009200;28;20053;-73
2023/04/08 03:49:19;;;;;;;27.13;13.68;;;1.60;99.90;;;;;;4995419;28;20041;-73
2023/04/08 03:51:44;;;;;;;24.73;12.45;;;1.60;99.90;;;;;;4989931;28;20512;-74
2023/04/08 03:54:10;;;;;;;26.80;14.15;;;1.60;99.90;;;;;;5002000;28;20045;-73
2023/04/08 03:56:35;;;;;;;24.73;12.63;;;1.50;99.90;;;;;;5015231;28;20060;-73
2023/04/08 03:59:01;;;;;;;22.25;13.07;;;1.50;99.90;;;;;;4997334;28;20075;-73
2023/04/08 04:01:27;;;;;;;24.30;11.88;;;1.50;99.90;;;;;;4988030;28;20494;-73
2023/04/08 04:03:53;;;;;;;24.30;13.15;;;1.50;99.90;;;;;;4985925;28;20038;-73
2023/04/08 04:06:19;;;;;;;25.52;13.25;;;1.50;99.90;;;;;;5008492;28;20096;-73
2023/04/08 04:08:45;;;;;;;23.60;12.52;;;1.50;99.90;;;;;;5002556;28;20038;-73
2023/04/08 04:11:10;;;;;;;21.67;12.65;;;1.40;99.90;;;;;;4996715;28;20038;-73
2023/04/08 04:13:36;;;;;;;24.40;12.90;;;1.40;99.90;;;;;;5011295;28;20044;-74
2023/04/08 04:16:02;;;;;;;23.98;12.85;;;1.40;99.90;;;;;;5006120;28;20037;-72
2023/04/08 04:18:27;;;;;;;23.70;13.02;;;1.40;99.90;;;;;;5006517;28;20128;-73
2023/04/08 04:20:53;;;;;;;26.92;14.18;;;1.40;99.90;;;;;;4999653;28;20452;-72
2023/04/08 04:23:18;;;;;;;27.95;13.40;;;1.40;99.90;;;;;;5004889;28;20045;-73
2023/04/08 04:25:44;;;;;;;29.00;14.77;;;1.40;99.90;;;;;;5011105;28;20545;-73
2023/04/08 04:28:10;;;;;;;25.83;13.57;;;1.40;99.90;;;;;;5001857;28;20046;-73
2023/04/08 04:30:39;;;;;;;28.27;14.80;;;1.50;99.90;;;;;;4999991;28;20502;-72
2023/04/08 04:33:06;;;;;;;26.10;14.07;;;1.50;99.90;;;;;;4975869;28;20065;-74
2023/04/08 04:35:32;;;;;;;28.48;14.80;;;1.60;99.90;;;;;;4991617;28;20308;-73
2023/04/08 04:37:58;;;;;;;28.65;14.45;;;1.60;99.90;;;;;;4992279;28;20494;-73
2023/04/08 04:40:24;;;;;;;30.92;15.02;;;1.70;99.90;;;;;;4995837;28;20048;-73
2023/04/08 04:42:49;;;;;;;28.17;13.98;;;1.70;99.90;;;;;;4995254;28;20030;-73
2023/04/08 04:45:15;;;;;;;27.38;13.90;;;1.70;99.90;;;;;;5002311;28;20037;-72
2023/04/08 04:47:41;;;;;;;25.60;13.30;;;1.70;99.90;;;;;;4997686;28;20026;-73
2023/04/08 04:50:07;;;;;;;24.10;13.05;;;1.70;99.90;;;;;;5014479;28;20405;-73
2023/04/08 04:52:34;;;;;;;29.85;13.95;;;1.60;99.90;;;;;;5000761;28;20048;-73
2023/04/08 04:55:00;;;;;;;29.92;13.80;;;1.60;99.90;;;;;;4995970;28;20064;-72
2023/04/08 04:57:26;;;;;;;26.83;13.98;;;1.60;99.90;;;;;;5006617;28;20498;-73
2023/04/08 04:59:51;;;;;;;27.95;13.68;;;1.60;99.90;;;;;;4998849;28;20054;-73
2023/04/08 05:02:17;;;;;;;28.25;13.65;;;1.70;99.90;;;;;;4998677;28;20133;-73
2023/04/08 05:04:42;;;;;;;24.60;13.77;;;1.70;99.90;;;;;;4994253;28;20038;-73
2023/04/08 05:07:08;;;;;;;33.00;14.00;;;1.80;99.90;;;;;;4998791;28;20042;-72
2023/04/08 05:09:33;;;;;;;28.20;14.13;;;1.90;99.90;;;;;;4997054;28;20124;-72
2023/04/08 05:11:59;;;;;;;29.20;14.32;;;2.00;99.90;;;;;;4997015;28;20048;-72
2023/04/08 05:14:27;;;;;;;29.23;14.07;;;2.00;99.90;;;;;;5001755;28;20046;-72
2023/04/08 05:16:52;;;;;;;30.13;14.80;;;2.10;99.90;;;;;;4991212;28;20042;-72
2023/04/08 05:19:18;;;;;;;30.52;14.98;;;2.20;99.90;;;;;;4993464;28;20046;-72
2023/04/08 05:21:44;;;;;;;34.83;16.02;;;2.40;99.90;;;;;;4988906;28;20045;-72
2023/04/08 05:24:09;;;;;;;30.83;14.95;;;2.40;99.90;;;;;;4987803;28;20105;-72
2023/04/08 05:26:36;;;;;;;30.67;15.32;;;2.50;99.90;;;;;;4988359;28;20049;-72
2023/04/08 05:29:02;;;;;;;35.97;17.40;;;2.60;99.90;;;;;;4989477;28;20034;-72
2023/04/08 05:31:28;;;;;;;35.15;16.92;;;2.70;99.90;;;;;;4992716;28;20092;-72
2023/04/08 05:33:53;;;;;;;38.58;17.75;;;2.80;99.90;;;;;;4988130;28;20044;-72
2023/04/08 05:36:19;;;;;;;36.38;17.00;;;2.90;99.90;;;;;;4984822;28;20046;-72
2023/04/08 05:38:44;;;;;;;39.90;17.98;;;3.00;99.90;;;;;;4990164;28;20041;-72
2023/04/08 05:41:11;;;;;;;41.83;18.88;;;3.20;99.90;;;;;;4994976;28;20426;-72
2023/04/08 05:43:36;;;;;;;38.67;17.67;;;3.30;99.90;;;;;;4995525;28;20378;-72
2023/04/08 05:46:09;;;;;;;39.20;18.60;;;3.50;99.90;;;;;;4990733;28;20034;-72
2023/04/08 05:48:35;;;;;;;38.10;18.20;;;3.60;99.90;;;;;;4987527;28;20030;-72
2023/04/08 05:51:01;;;;;;;41.85;17.83;;;3.70;99.90;;;;;;4988836;28;20386;-72
2023/04/08 05:53:27;;;;;;;33.95;17.52;;;3.80;99.90;;;;;;4989918;28;20050;-72
2023/04/08 05:55:52;;;;;;;40.65;18.00;;;3.90;99.90;;;;;;4995564;28;20050;-73
2023/04/08 05:58:18;;;;;;;42.35;18.73;;;4.00;99.90;;;;;;5011103;28;20033;-73
2023/04/08 06:00:43;;;;;;;40.75;18.15;;;4.10;99.90;;;;;;5011562;28;20044;-73
2023/04/08 06:03:09;;;;;;;38.38;18.48;;;4.20;99.90;;;;;;4998442;28;20037;-73
2023/04/08 06:05:35;;;;;;;39.92;19.00;;;4.30;99.90;;;;;;5003969;28;20055;-73
2023/04/08 06:08:00;;;;;;;36.50;18.42;;;4.40;99.90;;;;;;5010364;28;20255;-73
2023/04/08 06:10:26;;;;;;;41.08;18.58;;;4.50;99.90;;;;;;5009854;28;20042;-73
2023/04/08 06:12:51;;;;;;;41.80;18.55;;;4.60;99.90;;;;;;5023174;28;20050;-73
2023/04/08 06:15:17;;;;;;;34.85;18.30;;;4.70;99.90;;;;;;4998577;28;20506;-73
2023/04/08 06:17:43;;;;;;;34.47;17.02;;;4.90;99.90;;;;;;5005246;28;20036;-72
2023/04/08 06:20:09;;;;;;;39.40;18.63;;;5.10;99.90;;;;;;5012091;28;20049;-72
2023/04/08 06:22:35;;;;;;;37.05;18.85;;;5.10;99.90;;;;;;4996958;28;20033;-72
2023/04/08 06:25:01;;;;;;;36.58;17.08;;;5.20;99.90;;;;;;5010692;28;20043;-72
2023/04/08 06:27:27;;;;;;;39.05;18.67;;;5.30;99.90;;;;;;5010980;28;20175;-72
2023/04/08 06:29:52;;;;;;;33.92;17.58;;;5.50;99.90;;;;;;5014068;28;20116;-69
2023/04/08 06:32:18;;;;;;;31.50;16.75;;;5.50;99.90;;;;;;5010207;28;20045;-70
2023/04/08 06:34:44;;;;;;;33.47;16.98;;;5.70;99.90;;;;;;5011996;28;20128;-68
2023/04/08 06:37:10;;;;;;;28.65;16.17;;;6.00;99.90;;;;;;5012770;28;20493;-69
2023/04/08 06:39:35;;;;;;;30.67;16.17;;;6.20;99.90;;;;;;4994480;28;20038;-69
2023/04/08 06:42:01;;;;;;;27.75;15.52;;;6.30;99.90;;;;;;5011896;28;20037;-69
2023/04/08 06:44:27;;;;;;;28.10;16.02;;;6.50;99.90;;;;;;5030798;28;20044;-69
2023/04/08 06:46:52;;;;;;;26.88;15.02;;;6.70;99.90;;;;;;5009036;28;20395;-69
2023/04/08 06:49:18;;;;;;;26.05;14.63;;;7.00;99.90;;;;;;5009965;28;20045;-69
2023/04/08 06:51:43;;;;;;;26.05;15.18;;;7.20;99.90;;;;;;4995294;28;20176;-70
2023/04/08 06:54:09;;;;;;;25.20;14.90;;;7.40;99.90;;;;;;5013696;28;20493;-70
2023/04/08 06:56:35;;;;;;;22.77;15.15;;;7.50;99.90;;;;;;5026579;28;20489;-69
2023/04/08 06:59:02;;;;;;;26.40;15.75;;;7.60;99.90;;;;;;5011478;28;20045;-70
2023/04/08 07:01:27;;;;;;;22.10;14.27;;;7.80;99.90;;;;;;5013773;28;20049;-68
2023/04/08 07:03:53;;;;;;;23.77;14.60;;;8.00;99.90;;;;;;5017773;28;20850;-70
2023/04/08 07:06:18;;;;;;;22.67;14.40;;;8.10;99.90;;;;;;5012159;28;20623;-71
2023/04/08 07:08:44;;;;;;;20.90;13.93;;;8.40;99.90;;;;;;5017023;28;20037;-71
2023/04/08 07:11:10;;;;;;;38.00;14.60;;;8.60;99.90;;;;;;5017128;28;20490;-72
2023/04/08 07:13:35;;;;;;;20.08;12.85;;;8.80;99.90;;;;;;5017271;28;20037;-71
2023/04/08 07:16:01;;;;;;;19.98;13.30;;;8.90;99.90;;;;;;5009716;28;20041;-72
2023/04/08 07:18:26;;;;;;;25.92;14.63;;;8.90;99.90;;;;;;5000243;28;20042;-80
2023/04/08 07:20:52;;;;;;;33.65;15.07;;;8.90;99.90;;;;;;5013601;28;20033;-67
2023/04/08 07:23:19;;;;;;;24.98;13.73;;;8.80;99.90;;;;;;5014960;28;20033;-72
2023/04/08 07:25:45;;;;;;;22.08;14.07;;;8.80;99.90;;;;;;5017807;28;20040;-73
2023/04/08 07:28:11;;;;;;;21.08;13.25;;;8.80;99.90;;;;;;5015367;28;20047;-72
2023/04/08 07:30:37;;;;;;;22.00;14.38;;;8.70;99.90;;;;;;4998869;28;20237;-71
2023/04/08 07:33:02;;;;;;;18.98;12.82;;;8.60;99.90;;;;;;5018003;28;20045;-71
2023/04/08 07:35:28;;;;;;;20.08;13.20;;;8.60;99.90;;;;;;5014899;28;20033;-71
2023/04/08 07:37:54;;;;;;;21.85;13.23;;;8.50;99.90;;;;;;5017218;28;20057;-71
2023/04/08 07:40:20;;;;;;;23.08;12.75;;;8.50;99.90;;;;;;5013007;28;20033;-71
2023/04/08 07:42:45;;;;;;;22.85;13.75;;;8.60;99.90;;;;;;5017374;28;20037;-71
2023/04/08 07:45:11;;;;;;;21.67;13.85;;;8.60;99.90;;;;;;5013817;28;20120;-71
2023/04/08 07:47:36;;;;;;;19.65;13.18;;;8.70;99.90;;;;;;4999661;28;20076;-71
2023/04/08 07:50:06;;;;;;;21.48;13.68;;;8.90;99.90;;;;;;4994713;28;20041;-72
2023/04/08 07:52:32;;;;;;;21.35;12.90;;;9.30;99.90;;;;;;5013882;28;20540;-71
2023/04/08 07:54:58;;;;;;;17.70;12.50;;;9.60;99.90;;;;;;5016683;28;20538;-72
2023/04/08 07:57:25;;;;;;;20.02;12.77;;;9.90;99.90;;;;;;5014957;28;20061;-72
2023/04/08 07:59:50;;;;;;;20.05;12.98;;;10.10;99.90;;;;;;4998787;28;20083;-71
2023/04/08 08:02:16;;;;;;;19.50;12.82;;;9.80;99.90;;;;;;5016157;28;20029;-72
2023/04/08 08:04:42;;;;;;;21.45;12.25;;;9.70;99.90;;;;;;4998663;28;20539;-72
2023/04/08 08:07:07;;;;;;;18.08;12.70;;;9.60;99.90;;;;;;5032868;28;20483;-73
2023/04/08 08:09:33;;;;;;;17.92;12.75;;;9.60;99.90;;;;;;5011093;28;20037;-71
2023/04/08 08:11:58;;;;;;;20.90;13.45;;;9.60;99.90;;;;;;5031060;28;20059;-71
2023/04/08 08:14:25;;;;;;;19.52;13.13;;;9.60;99.90;;;;;;5029159;28;20164;-72
2023/04/08 08:16:52;;;;;;;20.50;13.25;;;9.70;99.90;;;;;;5009324;28;20110;-72
2023/04/08 08:19:21;;;;;;;19.08;12.32;;;9.90;99.90;;;;;;5000105;28;20073;-73
2023/04/08 08:21:48;;;;;;;20.08;13.32;;;9.80;99.90;;;;;;5009258;28;20046;-73
2023/04/08 08:24:13;;;;;;;20.58;13.23;;;9.70;99.90;;;;;;5016319;28;20048;-71
2023/04/08 08:26:39;;;;;;;19.90;12.55;;;9.70;99.90;;;;;;5018531;28;20032;-73
2023/04/08 08:29:07;;;;;;;20.77;13.15;;;9.80;99.90;;;;;;5016552;28;20044;-72
2023/04/08 08:31:33;;;;;;;17.95;12.73;;;9.70;99.90;;;;;;5014594;28;20038;-73
2023/04/08 08:33:59;;;;;;;20.40;12.65;;;9.60;99.90;;;;;;5012238;28;20029;-73
2023/04/08 08:36:26;;;;;;;24.30;13.75;;;9.60;99.90;;;;;;5010585;28;20032;-73
2023/04/08 08:38:52;;;;;;;21.05;12.98;;;9.40;99.90;;;;;;5014447;28;20119;-73
2023/04/08 08:41:21;;;;;;;22.30;13.23;;;9.40;99.90;;;;;;5016858;28;20052;-72
2023/04/08 08:43:47;;;;;;;20.75;13.38;;;9.50;99.90;;;;;;5011378;28;20059;-69
2023/04/08 08:46:16;;;;;;;19.67;13.18;;;9.40;99.90;;;;;;5013823;28;20045;-73
2023/04/08 08:48:45;;;;;;;22.85;12.90;;;9.60;99.90;;;;;;5015818;28;20052;-74
2023/04/08 08:51:12;;;;;;;24.25;12.65;;;9.40;99.90;;;;;;4990136;28;20064;-74
2023/04/08 08:53:37;;;;;;;20.38;13.05;;;9.50;99.90;;;;;;5015610;28;20049;-71
2023/04/08 08:56:07;;;;;;;19.02;12.43;;;9.60;99.90;;;;;;5016407;28;20116;-73
2023/04/08 08:58:33;;;;;;;22.25;13.73;;;9.70;99.90;;;;;;5012667;28;20087;-71
2023/04/08 09:00:59;;;;;;;20.05;13.07;;;9.50;99.90;;;;;;5014994;28;20052;-72
2023/04/08 09:03:26;;;;;;;19.45;12.55;;;9.50;99.90;;;;;;5014185;28;20116;-73
2023/04/08 09:06:00;;;;;;;19.98;13.80;;;9.50;99.90;;;;;;5006599;28;20735;-74
2023/04/08 09:08:34;;;;;;;19.40;12.25;;;9.50;99.90;;;;;;5013137;28;20048;-72
2023/04/08 09:11:26;;;;;;;19.33;11.85;;;9.50;99.90;;;;;;5000072;28;20049;-73
2023/04/08 09:13:51;;;;;;;21.35;12.15;;;9.50;99.90;;;;;;5003235;28;20042;-72
2023/04/08 09:16:18;;;;;;;20.15;11.65;;;9.50;99.90;;;;;;5014608;28;20045;-72
2023/04/08 09:18:45;;;;;;;22.13;11.52;;;9.40;99.90;;;;;;4996316;28;20476;-72
2023/04/08 09:21:13;;;;;;;20.80;11.55;;;9.40;99.90;;;;;;5012454;28;20363;-72
2023/04/08 09:23:57;;;;;;;17.27;10.85;;;9.40;99.90;;;;;;5013173;28;20694;-72
2023/04/08 09:26:23;;;;;;;18.35;12.20;;;9.60;99.90;;;;;;4996434;28;20029;-73
2023/04/08 09:29:05;;;;;;;17.42;10.45;;;9.50;99.90;;;;;;5012540;28;20040;-74
2023/04/08 09:31:32;;;;;;;19.80;11.70;;;9.40;99.90;;;;;;5011275;28;20033;-73
2023/04/08 09:34:01;;;;;;;19.95;11.88;;;9.40;99.90;;;;;;5013567;28;20681;-74
2023/04/08 09:36:27;;;;;;;19.33;11.68;;;9.50;99.90;;;;;;4997141;28;20099;-71
2023/04/08 09:38:53;;;;;;;19.25;11.63;;;9.50;99.90;;;;;;5013320;28;20030;-72
2023/04/08 09:41:22;;;;;;;18.73;10.80;;;9.50;99.90;;;;;;4999277;28;20060;-71
2023/04/08 09:43:49;;;;;;;18.30;11.43;;;9.30;99.90;;;;;;4997984;28;20038;-73
2023/04/08 09:46:17;;;;;;;17.50;10.85;;;9.40;99.90;;;;;;5012092;28;20674;-74
2023/04/08 09:48:51;;;;;;;19.65;11.10;;;9.40;99.90;;;;;;4998444;28;20128;-72
2023/04/08 09:51:21;;;;;;;18.33;10.70;;;9.40;99.90;;;;;;4992768;28;20054;-72
2023/04/08 09:53:51;;;;;;;18.70;11.05;;;9.30;99.90;;;;;;5005825;28;20049;-73
2023/04/08 09:56:18;;;;;;;15.77;10.10;;;9.40;99.90;;;;;;5009422;28;20111;-72
2023/04/08 09:59:02;;;;;;;17.08;10.30;;;9.50;99.90;;;;;;5012400;28;20033;-71
2023/04/08 10:01:36;;;;;;;19.27;11.27;;;9.50;99.90;;;;;;5009047;28;20404;-72
2023/04/08 10:04:07;;;;;;;18.80;10.80;;;9.60;99.90;;;;;;5001613;28;20057;-72
2023/04/08 10:06:34;;;;;;;16.48;10.35;;;9.70;99.90;;;;;;5010211;28;20120;-72
2023/04/08 10:09:01;;;;;;;16.35;9.65;;;9.80;99.90;;;;;;5015049;28;20106;-72
2023/04/08 10:11:27;;;;;;;16.77;9.77;;;9.90;99.90;;;;;;5011405;28;20052;-72
2023/04/08 10:13:53;;;;;;;17.88;10.15;;;9.90;99.90;;;;;;4994534;28;20069;-72
2023/04/08 10:16:20;;;;;;;17.00;10.65;;;10.00;99.90;;;;;;4995701;28;20109;-72
2023/04/08 10:18:48;;;;;;;15.13;9.93;;;10.10;99.90;;;;;;4996683;28;20400;-72
2023/04/08 10:21:36;;;;;;;18.17;10.63;;;10.00;99.90;;;;;;5003355;28;20473;-72
2023/04/08 10:24:06;;;;;;;16.08;10.82;;;10.10;99.90;;;;;;5005122;28;20030;-73
2023/04/08 10:26:36;;;;;;;17.43;9.73;;;10.10;99.90;;;;;;4994685;28;20030;-73
2023/04/08 10:29:17;;;;;;;16.33;10.20;;;9.90;99.90;;;;;;5000942;28;20116;-72
2023/04/08 10:31:44;;;;;;;16.35;9.88;;;9.90;99.90;;;;;;5011059;28;20365;-72
2023/04/08 10:34:21;;;;;;;14.57;9.57;;;10.00;99.90;;;;;;4986572;28;20077;-72
2023/04/08 10:36:50;;;;;;;15.80;10.00;;;10.20;99.90;;;;;;5002899;28;20033;-72
2023/04/08 10:39:16;;;;;;;18.85;10.20;;;10.30;99.90;;;;;;5005577;28;20033;-72
2023/04/08 10:41:46;;;;;;;18.77;10.10;;;10.30;99.90;;;;;;4997304;28;20043;-72
2023/04/08 10:44:15;;;;;;;17.48;10.02;;;10.30;99.90;;;;;;5007366;28;20567;-72
2023/04/08 10:46:40;;;;;;;18.42;11.15;;;10.30;99.90;;;;;;5007028;28;20056;-71
2023/04/08 10:49:07;;;;;;;18.05;10.60;;;10.20;99.90;;;;;;5008423;28;20037;-72
2023/04/08 10:51:34;;;;;;;15.32;9.40;;;10.10;99.90;;;;;;5010988;28;20445;-73
2023/04/08 10:54:08;;;;;;;14.10;9.40;;;9.90;99.90;;;;;;5005021;28;20448;-71
2023/04/08 10:56:35;;;;;;;15.68;9.65;;;9.80;99.90;;;;;;5022008;28;20095;-72
2023/04/08 10:59:02;;;;;;;15.75;9.75;;;9.70;99.90;;;;;;4993639;28;20099;-71
2023/04/08 11:01:40;;;;;;;15.40;9.63;;;9.80;99.90;;;;;;4993894;28;20045;-72
2023/04/08 11:04:10;;;;;;;17.65;10.38;;;9.90;99.90;;;;;;5008236;28;20041;-71
2023/04/08 11:06:36;;;;;;;17.88;10.63;;;10.00;99.90;;;;;;4992929;28;20037;-71
2023/04/08 11:09:03;;;;;;;22.42;10.88;;;10.10;99.90;;;;;;4994647;28;20041;-72
2023/04/08 11:11:30;;;;;;;19.45;10.77;;;10.20;99.90;;;;;;5012268;28;20120;-72
2023/04/08 11:13:56;;;;;;;18.98;10.00;;;10.30;99.90;;;;;;4980636;28;20037;-72
2023/04/08 11:16:22;;;;;;;22.63;11.38;;;10.30;99.90;;;;;;5001636;28;20040;-72
2023/04/08 11:18:49;;;;;;;20.30;11.75;;;10.40;99.90;;;;;;4975161;28;20511;-71
2023/04/08 11:21:16;;;;;;;17.85;11.20;;;10.40;99.90;;;;;;4984205;28;20092;-71
2023/04/08 11:23:41;;;;;;;22.20;12.73;;;10.40;99.90;;;;;;4998533;28;20037;-73
2023/04/08 11:26:07;;;;;;;20.83;11.48;;;10.40;99.90;;;;;;5010431;28;20037;-72
2023/04/08 11:28:34;;;;;;;20.63;12.15;;;10.30;99.90;;;;;;5005004;28;20029;-72
2023/04/08 11:31:02;;;;;;;21.75;12.30;;;10.40;99.90;;;;;;5005073;28;20366;-72
2023/04/08 11:33:30;;;;;;;22.02;13.02;;;10.40;99.90;;;;;;5009405;28;20057;-73
2023/04/08 11:35:56;;;;;;;24.95;12.48;;;10.50;99.90;;;;;;5004419;28;20037;-72
2023/04/08 11:38:23;;;;;;;25.67;13.32;;;10.40;99.90;;;;;;5010710;28;20096;-73
2023/04/08 11:40:57;;;;;;;22.38;12.55;;;10.50;99.90;;;;;;4991338;28;20045;-72
2023/04/08 11:43:24;;;;;;;24.48;13.70;;;10.60;99.90;;;;;;5013323;28;20057;-72
2023/04/08 11:45:49;;;;;;;24.52;14.13;;;10.50;99.90;;;;;;5007659;28;20408;-72
2023/04/08 11:48:16;;;;;;;24.73;13.23;;;10.50;99.90;;;;;;5017799;28;20041;-72
2023/04/08 11:50:42;;;;;;;23.15;13.52;;;10.40;99.90;;;;;;5013974;28;20071;-72
2023/04/08 11:53:24;;;;;;;22.85;13.40;;;10.40;99.90;;;;;;5016933;28;20071;-71
2023/04/08 11:55:49;;;;;;;28.67;14.52;;;10.30;99.90;;;;;;5010433;28;20064;-73
2023/04/08 11:58:15;;;;;;;29.67;13.93;;;10.20;99.90;;;;;;5001604;28;20041;-73
2023/04/08 12:00:41;;;;;;;32.10;14.30;;;10.20;99.90;;;;;;5015856;28;20042;-72
2023/04/08 12:03:07;;;;;;;26.08;14.13;;;10.00;99.90;;;;;;4998249;28;20034;-72
2023/04/08 12:05:33;;;;;;;27.92;15.02;;;10.00;99.90;;;;;;5019632;28;20069;-73
2023/04/08 12:07:58;;;;;;;29.80;16.52;;;10.10;99.90;;;;;;5016506;28;20107;-73
2023/04/08 12:10:24;;;;;;;28.30;15.50;;;10.10;99.90;;;;;;4997137;28;20053;-72
2023/04/08 12:12:50;;;;;;;30.83;16.42;;;10.20;99.90;;;;;;5016799;28;20044;-72
2023/04/08 12:15:16;;;;;;;31.60;16.95;;;10.20;99.90;;;;;;5009573;28;20033;-71
2023/04/08 12:17:42;;;;;;;34.10;17.85;;;10.20;99.90;;;;;;5014048;28;20043;-71
2023/04/08 12:20:09;;;;;;;36.65;18.65;;;10.00;99.90;;;;;;4995539;28;20118;-71
2023/04/08 12:22:35;;;;;;;41.22;20.75;;;9.80;99.90;;;;;;5004890;28;20045;-72
2023/04/08 12:25:02;;;;;;;36.60;18.85;;;9.90;99.90;;;;;;5014858;28;20604;-71
2023/04/08 12:27:28;;;;;;;35.00;18.08;;;9.90;99.90;;;;;;4998405;28;20099;-72
2023/04/08 12:29:54;;;;;;;38.80;19.17;;;9.80;99.90;;;;;;5016198;28;20045;-71
2023/04/08 12:32:20;;;;;;;34.75;18.15;;;9.80;99.90;;;;;;5031300;28;20042;-70
2023/04/08 12:34:46;;;;;;;38.55;18.75;;;9.70;99.90;;;;;;5010191;28;20049;-72
2023/04/08 12:37:11;;;;;;;38.88;19.13;;;9.60;99.90;;;;;;5014904;28;20048;-72